Time;durP1;ratioP1;P1;durP2;ratioP2;P2;SDS_P1;SDS_P2;PMS_P1;PMS_P2;Temp;Humidity;BMP_temperature;BMP_pressure;BME280_temperature;BME280_humidity;BME280_pressure;Samples;Min_cycle;Max_cycle;Signal;HPM_P1;HPM_P2
2020/12/10 00:00:43;;;;;;;20.83;10.10;;;;;;;-4.12;68.75;100256.58;1733324;81;21276;-57
2020/12/10 00:03:10;;;;;;;20.07;10.30;;;;;;;-4.13;68.74;100250.03;1734825;83;21487;-59
2020/12/10 00:05:38;;;;;;;17.97;9.23;;;;;;;-4.18;68.78;100249.22;1731497;81;21563;-58
2020/12/10 00:08:06;;;;;;;23.13;10.50;;;;;;;-4.21;68.91;100243.53;1685440;84;21647;-57
2020/12/10 00:10:34;;;;;;;19.20;9.70;;;;;;;-4.23;69.00;100237.86;1721995;83;21181;-59
2020/12/10 00:13:02;;;;;;;20.33;9.67;;;;;;;-4.24;69.10;100234.83;1692020;84;21158;-58
2020/12/10 00:15:30;;;;;;;23.20;10.50;;;;;;;-4.26;69.19;100232.66;1729658;83;21350;-56
2020/12/10 00:17:57;;;;;;;23.43;10.57;;;;;;;-4.29;69.29;100228.30;1734365;83;21316;-58
2020/12/10 00:20:25;;;;;;;22.40;10.80;;;;;;;-4.29;69.33;100231.38;1735094;83;21319;-58
2020/12/10 00:22:53;;;;;;;21.97;10.03;;;;;;;-4.31;69.42;100227.45;1724077;81;21169;-57
2020/12/10 00:25:21;;;;;;;23.03;11.47;;;;;;;-4.35;69.45;100228.39;1734768;81;21122;-57
2020/12/10 00:27:49;;;;;;;20.07;9.57;;;;;;;-4.39;69.54;100213.50;1734351;82;21149;-57
2020/12/10 00:30:16;;;;;;;20.43;10.47;;;;;;;-4.39;69.57;100213.97;1722775;81;21588;-56
2020/12/10 00:32:44;;;;;;;22.53;9.80;;;;;;;-4.42;69.64;100216.63;1718734;82;21159;-57
2020/12/10 00:35:12;;;;;;;22.43;10.77;;;;;;;-4.44;69.76;100214.03;1716062;83;21154;-56
2020/12/10 00:37:40;;;;;;;23.93;11.23;;;;;;;-4.44;69.70;100207.89;1714830;82;21185;-57
2020/12/10 00:40:08;;;;;;;20.10;10.10;;;;;;;-4.45;69.74;100214.03;1720029;82;21146;-57
2020/12/10 00:42:36;;;;;;;19.77;10.33;;;;;;;-4.46;69.74;100216.25;1718990;82;21205;-57
2020/12/10 00:45:04;;;;;;;22.23;10.70;;;;;;;-4.48;69.72;100214.08;1709412;82;21171;-57
2020/12/10 00:47:32;;;;;;;23.43;10.17;;;;;;;-4.52;69.81;100213.23;1691232;82;21163;-57
2020/12/10 00:50:00;;;;;;;19.60;10.37;;;;;;;-4.53;69.89;100213.27;1715451;82;21652;-56
2020/12/10 00:52:29;;;;;;;21.43;10.00;;;;;;;-4.56;69.97;100208.47;1719505;83;21210;-58
2020/12/10 00:54:59;;;;;;;20.43;10.37;;;;;;;-4.55;69.99;100204.09;1718107;83;21210;-58
2020/12/10 00:57:29;;;;;;;19.33;9.00;;;;;;;-4.57;69.97;100204.11;1705549;83;21565;-57
2020/12/10 00:59:57;;;;;;;21.73;10.07;;;;;;;-4.57;69.98;100200.61;1682409;85;21191;-57
2020/12/10 01:02:26;;;;;;;19.73;10.20;;;;;;;-4.60;70.00;100190.11;1697268;83;21163;-58
2020/12/10 01:04:54;;;;;;;18.03;8.70;;;;;;;-4.61;70.06;100194.49;1705353;83;21190;-57
2020/12/10 01:07:22;;;;;;;17.37;8.87;;;;;;;-4.61;70.11;100194.49;1718602;83;21163;-58
2020/12/10 01:09:50;;;;;;;23.97;8.23;;;;;;;-4.62;70.10;100192.77;1718444;83;21159;-56
2020/12/10 01:12:18;;;;;;;18.37;8.93;;;;;;;-4.63;70.12;100192.33;1719343;82;21186;-57
2020/12/10 01:14:46;;;;;;;22.70;9.60;;;;;;;-4.64;70.07;100192.36;1709047;83;21542;-56
2020/12/10 01:17:14;;;;;;;25.00;9.90;;;;;;;-4.65;70.07;100195.42;1672765;85;21210;-56
2020/12/10 01:19:42;;;;;;;17.00;9.43;;;;;;;-4.65;70.03;100203.31;1719512;82;21174;-56
2020/12/10 01:22:12;;;;;;;19.90;7.50;;;;;;;-4.64;70.05;100196.30;1718218;83;21166;-58
2020/12/10 01:24:42;;;;;;;20.53;9.43;;;;;;;-4.65;70.00;100192.80;1683972;85;21634;-57
2020/12/10 01:27:10;;;;;;;15.57;8.17;;;;;;;-4.68;70.00;100198.11;1717818;83;21161;-58
2020/12/10 01:29:37;;;;;;;19.30;8.20;;;;;;;-4.69;70.10;100191.53;1683318;84;21650;-58
2020/12/10 01:32:05;;;;;;;22.20;9.00;;;;;;;-4.68;70.14;100198.11;1665731;85;21696;-58
2020/12/10 01:34:33;;;;;;;18.47;8.53;;;;;;;-4.67;70.09;100191.06;1668037;84;21186;-56
2020/12/10 01:37:01;;;;;;;21.43;10.07;;;;;;;-4.68;70.14;100186.27;1667428;84;21620;-57
2020/12/10 01:39:29;;;;;;;20.83;9.47;;;;;;;-4.69;70.14;100188.47;1667956;84;21435;-57
2020/12/10 01:42:03;;;;;;;21.10;9.70;;;;;;;-4.69;70.16;100183.20;1667225;86;21262;-57
2020/12/10 01:44:31;;;;;;;24.27;9.93;;;;;;;-4.69;70.20;100184.52;1653939;84;21561;-58
2020/12/10 01:46:58;;;;;;;21.30;9.90;;;;;;;-4.70;70.24;100180.17;1666152;84;21346;-57
2020/12/10 01:49:26;;;;;;;19.60;9.33;;;;;;;-4.71;70.25;100182.36;1668287;85;21577;-57
2020/12/10 01:51:54;;;;;;;18.30;9.73;;;;;;;-4.70;70.33;100181.48;1662863;86;21312;-57
2020/12/10 01:54:22;;;;;;;18.67;10.43;;;;;;;-4.70;70.35;100180.61;1663842;84;21303;-57
2020/12/10 01:56:55;;;;;;;20.03;8.77;;;;;;;-4.73;70.38;100177.56;1668098;84;21370;-56
2020/12/10 01:59:23;;;;;;;19.92;10.13;;;;;;;-4.73;70.45;100174.05;1668100;86;21123;-56
2020/12/10 02:01:51;;;;;;;19.27;9.57;;;;;;;-4.73;70.44;100189.83;1667956;84;21174;-57
2020/12/10 02:04:34;;;;;;;23.63;9.73;;;;;;;-4.74;70.51;100183.70;1668111;86;21126;-57
2020/12/10 02:07:01;;;;;;;23.30;11.47;;;;;;;-4.73;70.50;100185.89;1667945;84;21162;-56
2020/12/10 02:09:30;;;;;;;26.90;9.87;;;;;;;-4.75;70.51;100191.17;1646059;84;21203;-57
2020/12/10 02:11:58;;;;;;;16.70;9.30;;;;;;;-4.74;70.58;100187.64;1661045;86;21153;-58
2020/12/10 02:14:37;;;;;;;21.83;9.87;;;;;;;-4.73;70.61;100184.13;1667382;86;21304;-58
2020/12/10 02:17:07;;;;;;;19.30;9.33;;;;;;;-4.74;70.48;100178.91;1708574;84;21147;-57
2020/12/10 02:19:35;;;;;;;21.43;9.43;;;;;;;-4.77;70.40;100174.98;1679285;85;21120;-57
2020/12/10 02:22:03;;;;;;;18.73;9.50;;;;;;;-4.80;70.37;100181.58;1679324;84;21152;-59
2020/12/10 02:24:30;;;;;;;15.87;7.97;;;;;;;-4.83;70.30;100169.37;1667495;84;21130;-57
2020/12/10 02:26:58;;;;;;;15.93;8.30;;;;;;;-4.85;70.28;100167.17;1658945;84;21142;-57
2020/12/10 02:29:26;;;;;;;18.80;8.87;;;;;;;-4.87;70.27;100159.75;1661952;84;21808;-57
2020/12/10 02:31:59;;;;;;;13.03;7.42;;;;;;;-4.88;70.32;100159.34;1672515;84;21173;-57
2020/12/10 02:34:27;;;;;;;20.70;9.40;;;;;;;-4.89;70.31;100157.59;1721595;83;22199;-57
2020/12/10 02:36:55;;;;;;;16.67;9.17;;;;;;;-4.92;70.29;100152.82;1717950;82;21162;-59
2020/12/10 02:39:23;;;;;;;18.53;7.90;;;;;;;-4.95;70.37;100144.52;1659352;85;21416;-56
2020/12/10 02:41:51;;;;;;;16.50;8.03;;;;;;;-4.97;70.40;100140.17;1710949;83;21151;-57
2020/12/10 02:44:19;;;;;;;18.53;8.90;;;;;;;-5.00;70.47;100139.75;1681442;85;21514;-57
2020/12/10 02:46:47;;;;;;;20.73;9.63;;;;;;;-5.03;70.56;100134.55;1721328;83;21154;-57
2020/12/10 02:49:15;;;;;;;19.33;9.37;;;;;;;-5.06;70.65;100126.70;1684445;85;21614;-56
2020/12/10 02:51:43;;;;;;;16.27;7.53;;;;;;;-5.06;70.73;100132.39;1715021;83;21178;-57
2020/12/10 02:54:11;;;;;;;18.83;9.07;;;;;;;-5.06;70.85;100137.20;1684131;85;21310;-56
2020/12/10 02:56:39;;;;;;;15.97;8.13;;;;;;;-5.05;70.90;100127.58;1721278;83;21293;-57
2020/12/10 02:59:07;;;;;;;19.07;9.37;;;;;;;-5.03;70.98;100131.92;1666280;85;21116;-57
2020/12/10 03:01:35;;;;;;;20.17;8.87;;;;;;;-5.02;71.01;100132.33;1661073;85;21165;-60
2020/12/10 03:04:04;;;;;;;16.57;8.93;;;;;;;-5.03;71.00;100120.10;1721796;83;21795;-56
2020/12/10 03:06:32;;;;;;;19.67;9.23;;;;;;;-5.06;71.05;100110.92;1706541;83;21182;-57
2020/12/10 03:09:00;;;;;;;25.57;9.83;;;;;;;-5.07;71.10;100122.34;1718073;82;21182;-58
2020/12/10 03:11:28;;;;;;;21.40;10.53;;;;;;;-5.08;71.16;100129.78;1721225;82;21182;-56
2020/12/10 03:13:56;;;;;;;20.33;11.13;;;;;;;-5.06;71.29;100129.32;1720586;83;21599;-57
2020/12/10 03:16:24;;;;;;;23.93;9.97;;;;;;;-5.06;71.35;100125.37;1715596;83;21320;-58
2020/12/10 03:18:52;;;;;;;20.63;10.13;;;;;;;-5.01;71.41;100134.53;1683804;85;21594;-56
2020/12/10 03:21:20;;;;;;;22.03;9.33;;;;;;;-5.01;71.42;100127.52;1721276;82;21625;-57
2020/12/10 03:23:48;;;;;;;19.90;10.83;;;;;;;-5.01;71.42;100128.84;1721656;83;21198;-57
2020/12/10 03:26:16;;;;;;;20.40;11.50;;;;;;;-5.03;71.46;100134.55;1720793;82;21609;-57
2020/12/10 03:28:43;;;;;;;20.17;9.37;;;;;;;-5.02;71.57;100134.12;1720982;82;21178;-57
2020/12/10 03:31:11;;;;;;;26.37;10.73;;;;;;;-5.00;71.57;100135.81;1677588;84;21545;-56
2020/12/10 03:33:39;;;;;;;21.97;11.07;;;;;;;-5.01;71.54;100138.03;1730188;82;21484;-58
2020/12/10 03:36:07;;;;;;;18.80;9.80;;;;;;;-5.03;71.63;100135.87;1716277;83;21252;-57
2020/12/10 03:38:34;;;;;;;21.20;10.37;;;;;;;-5.04;71.72;100129.30;1704826;84;21142;-56
2020/12/10 03:41:05;;;;;;;19.50;8.80;;;;;;;-5.03;71.80;100118.79;1735257;81;21154;-59
2020/12/10 03:43:33;;;;;;;18.50;9.17;;;;;;;-5.00;71.82;100113.47;1702587;84;21524;-57
2020/12/10 03:46:01;;;;;;;21.27;9.67;;;;;;;-5.02;71.76;100103.89;1728818;83;21202;-58
2020/12/10 03:48:28;;;;;;;20.63;10.30;;;;;;;-5.05;71.86;100110.05;1697651;83;21737;-57
2020/12/10 03:50:56;;;;;;;20.37;11.10;;;;;;;-5.08;71.98;100103.95;1735267;83;21287;-57
2020/12/10 03:53:24;;;;;;;17.77;9.03;;;;;;;-5.08;72.06;100090.80;1731736;81;21731;-58
2020/12/10 03:55:52;;;;;;;20.83;10.20;;;;;;;-5.09;72.15;100097.84;1702186;84;21182;-56
2020/12/10 03:58:19;;;;;;;17.67;9.83;;;;;;;-5.07;72.17;100103.08;1731542;81;21328;-57
2020/12/10 04:00:47;;;;;;;17.57;9.20;;;;;;;-5.06;72.14;100100.85;1734555;81;21299;-58
2020/12/10 04:03:15;;;;;;;21.23;10.10;;;;;;;-5.07;72.04;100093.88;1698349;84;21201;-56
2020/12/10 04:05:43;;;;;;;20.60;10.40;;;;;;;-5.10;71.99;100084.70;1707409;83;21296;-57
2020/12/10 04:08:11;;;;;;;22.20;9.93;;;;;;;-5.15;72.02;100080.81;1660347;84;21133;-57
2020/12/10 04:10:39;;;;;;;19.87;10.37;;;;;;;-5.21;72.12;100074.77;1747010;81;21304;-57
2020/12/10 04:13:07;;;;;;;19.13;10.10;;;;;;;-5.25;72.24;100075.25;1721082;81;21145;-56
2020/12/10 04:15:35;;;;;;;23.20;10.20;;;;;;;-5.27;72.41;100069.15;1735196;81;21126;-57
2020/12/10 04:18:04;;;;;;;18.00;8.83;;;;;;;-5.30;72.51;100073.11;1719576;83;21138;-57
2020/12/10 04:20:32;;;;;;;17.50;9.77;;;;;;;-5.33;72.66;100068.76;1720990;81;21188;-57
2020/12/10 04:22:59;;;;;;;24.03;11.57;;;;;;;-5.35;72.80;100069.22;1716576;83;21197;-58
2020/12/10 04:25:27;;;;;;;20.30;10.53;;;;;;;-5.37;72.84;100072.75;1734820;83;21568;-58
2020/12/10 04:27:55;;;;;;;23.27;10.40;;;;;;;-5.38;72.99;100069.28;1731767;81;21149;-58
2020/12/10 04:30:22;;;;;;;20.90;10.43;;;;;;;-5.36;73.06;100080.63;1731052;81;21441;-57
2020/12/10 04:32:51;;;;;;;19.83;9.53;;;;;;;-5.33;73.09;100066.60;1714325;82;21167;-57
2020/12/10 04:35:19;;;;;;;22.77;11.03;;;;;;;-5.31;73.07;100071.39;1680226;85;22245;-57
2020/12/10 04:37:48;;;;;;;20.17;9.97;;;;;;;-5.27;73.11;100066.52;1657857;84;21150;-57
2020/12/10 04:40:18;;;;;;;19.20;10.87;;;;;;;-5.20;73.02;100074.77;1663034;84;21312;-57
2020/12/10 04:42:47;;;;;;;24.03;10.43;;;;;;;-5.15;72.75;100076.03;1665585;84;21178;-58
2020/12/10 04:45:16;;;;;;;21.27;11.10;;;;;;;-5.14;72.76;100061.98;1648488;84;21170;-56
2020/12/10 04:47:43;;;;;;;22.27;11.47;;;;;;;-5.09;72.77;100070.25;1668010;84;21154;-59
2020/12/10 04:50:18;;;;;;;20.67;9.30;;;;;;;-5.01;72.75;100065.77;1654579;86;21166;-57
2020/12/10 04:52:45;;;;;;;23.70;10.25;;;;;;;-4.91;72.64;100071.75;1667873;84;21174;-56
2020/12/10 04:55:13;;;;;;;21.93;10.20;;;;;;;-4.83;72.37;100069.91;1657502;86;21316;-57
2020/12/10 04:57:40;;;;;;;23.43;10.70;;;;;;;-4.78;72.09;100066.31;1663612;84;21162;-58
2020/12/10 05:00:08;;;;;;;18.33;9.93;;;;;;;-4.73;71.93;100065.82;1655026;86;21190;-57
2020/12/10 05:02:36;;;;;;;30.37;11.80;;;;;;;-4.69;71.78;100060.94;1654081;84;21614;-56
2020/12/10 05:05:30;;;;;;;23.43;10.13;;;;;;;-4.69;71.57;100057.43;1660410;86;21368;-57
2020/12/10 05:07:59;;;;;;;;;;;;;;;-4.69;71.61;100047.79;1670685;86;21205;-58
2020/12/10 05:10:27;;;;;;;23.90;10.83;;;;;;;-4.66;71.67;100057.41;1653322;84;20138;-57
2020/12/10 05:13:10;;;;;;;22.20;10.53;;;;;;;-4.63;71.64;100065.26;1664507;84;21336;-62
2020/12/10 05:15:38;;;;;;;24.97;11.30;;;;;;;-4.61;71.65;100061.69;1655641;86;21593;-58
2020/12/10 05:18:11;;;;;;;21.57;11.00;;;;;;;-4.57;71.65;100062.09;1667774;84;21581;-57
2020/12/10 05:20:55;;;;;;;22.90;11.73;;;;;;;-4.55;71.55;100056.80;1668366;85;21350;-58
2020/12/10 05:23:35;;;;;;;24.87;11.30;;;;;;;-4.54;71.45;100067.73;1658649;84;21630;-57
2020/12/10 05:26:08;;;;;;;21.57;10.57;;;;;;;-4.56;71.41;100063.81;1700066;82;21131;-57
2020/12/10 05:28:53;;;;;;;21.83;9.93;;;;;;;-4.53;71.54;100075.18;1714055;84;21187;-58
2020/12/10 05:31:21;;;;;;;28.87;11.07;;;;;;;-4.53;71.52;100073.42;1719688;81;21344;-58
2020/12/10 05:34:00;;;;;;;26.40;11.57;;;;;;;-4.52;71.54;100069.05;1714079;81;21210;-56
2020/12/10 05:36:30;;;;;;;25.13;10.53;;;;;;;-4.52;71.63;100076.94;1701130;82;21193;-57
2020/12/10 05:39:11;;;;;;;21.50;10.47;;;;;;;-4.48;71.68;100087.83;1731661;81;21216;-58
2020/12/10 05:41:43;;;;;;;22.17;11.07;;;;;;;-4.43;71.82;100079.44;1735812;81;21186;-57
2020/12/10 05:44:22;;;;;;;26.87;12.67;;;;;;;-4.36;71.76;100079.30;1732541;81;21146;-56
2020/12/10 05:46:53;;;;;;;39.73;11.50;;;;;;;-4.30;71.69;100083.63;1732832;81;21708;-56
2020/12/10 05:49:21;;;;;;;22.50;10.50;;;;;;;-4.25;71.70;100082.64;1736860;81;21146;-60
2020/12/10 05:51:50;;;;;;;23.73;10.73;;;;;;;-4.19;71.77;100081.66;1726466;81;21178;-58
2020/12/10 05:54:18;;;;;;;22.53;10.83;;;;;;;-4.11;71.82;100074.09;1726506;81;21295;-58
2020/12/10 05:56:59;;;;;;;20.77;10.07;;;;;;;-4.01;71.83;100084.89;1733191;81;21288;-56
2020/12/10 05:59:28;;;;;;;24.37;10.03;;;;;;;-3.95;71.80;100074.25;1728609;83;21162;-57
2020/12/10 06:02:05;;;;;;;30.60;10.70;;;;;;;-3.94;71.87;100079.08;1729543;83;21288;-57
2020/12/10 06:04:34;;;;;;;20.03;9.43;;;;;;;-3.92;72.16;100078.16;1729764;81;21180;-57
2020/12/10 06:07:04;;;;;;;29.10;9.63;;;;;;;-3.88;72.49;100072.38;1695248;85;21166;-57
2020/12/10 06:09:31;;;;;;;18.87;10.07;;;;;;;-3.87;72.71;100075.45;1729478;83;21495;-56
2020/12/10 06:12:04;;;;;;;22.53;11.00;;;;;;;-3.88;72.89;100073.27;1701230;83;21377;-58
2020/12/10 06:14:32;;;;;;;21.23;10.47;;;;;;;-3.82;73.10;100078.85;1701281;83;21271;-57
2020/12/10 06:17:09;;;;;;;24.53;9.97;;;;;;;-3.80;73.10;100074.46;1729541;83;21337;-57
2020/12/10 06:19:39;;;;;;;21.00;10.50;;;;;;;-3.77;73.07;100073.07;1701279;83;21189;-57
2020/12/10 06:22:31;;;;;;;19.50;10.30;;;;;;;-3.77;72.97;100078.34;1730719;81;21183;-57
2020/12/10 06:25:05;;;;;;;21.93;9.90;;;;;;;-3.77;72.83;100075.70;1730056;81;21177;-59
2020/12/10 06:27:36;;;;;;;24.18;10.08;;;;;;;-3.81;72.84;100063.49;1662088;86;21720;-60
2020/12/10 06:30:21;;;;;;;25.95;10.98;;;;;;;-3.86;72.92;100057.42;1706382;83;21162;-58
2020/12/10 06:32:51;;;;;;;24.07;11.10;;;;;;;-3.82;72.97;100056.47;1742998;81;21165;-57
2020/12/10 06:35:34;;;;;;;20.73;10.20;;;;;;;-3.77;72.98;100058.59;1717679;82;21165;-58
2020/12/10 06:38:06;;;;;;;29.07;11.83;;;;;;;-3.77;73.08;100058.59;1734673;82;21174;-59
2020/12/10 06:40:37;;;;;;;24.13;12.03;;;;;;;-3.75;73.25;100054.59;1735323;82;21185;-57
2020/12/10 06:43:06;;;;;;;27.60;13.53;;;;;;;-3.74;73.35;100053.28;1740614;82;21403;-59
2020/12/10 06:45:44;;;;;;;35.37;14.37;;;;;;;-3.71;73.46;100052.36;1740783;82;21287;-58
2020/12/10 06:48:20;;;;;;;27.07;12.70;;;;;;;-3.69;73.51;100050.09;1740857;82;21189;-57
2020/12/10 06:50:48;;;;;;;27.63;13.97;;;;;;;-3.63;73.58;100041.23;1740295;82;21169;-59
2020/12/10 06:53:23;;;;;;;25.97;13.47;;;;;;;-3.60;73.62;100035.44;1740090;82;21215;-58
2020/12/10 06:56:05;;;;;;;31.93;13.97;;;;;;;-3.60;73.73;100038.08;1740132;82;21599;-58
2020/12/10 06:58:43;;;;;;;31.13;14.23;;;;;;;-3.58;73.86;100036.28;1738982;81;21149;-58
2020/12/10 07:01:37;;;;;;;31.10;13.37;;;;;;;-3.53;73.87;100035.75;1740312;82;21212;-58
2020/12/10 07:07:22;;;;;;;31.47;15.13;;;;;;;-3.50;73.87;100032.20;1715691;82;21177;-58
2020/12/10 07:09:58;;;;;;;30.83;13.30;;;;;;;-3.49;73.99;100036.55;1739136;82;21303;-56
2020/12/10 07:12:33;;;;;;;28.90;12.00;;;;;;;-3.47;74.04;100039.58;1740768;81;21640;-57
2020/12/10 07:15:16;;;;;;;30.40;14.60;;;;;;;-3.45;74.07;100032.98;1740787;82;21477;-57
2020/12/10 07:17:50;;;;;;;26.90;13.20;;;;;;;-3.44;74.18;100030.75;1731352;82;21604;-58
2020/12/10 07:20:23;;;;;;;29.20;12.60;;;;;;;-3.37;74.27;100028.42;1731264;82;21323;-59
2020/12/10 07:22:52;;;;;;;30.23;12.80;;;;;;;-3.30;74.12;100034.00;1740456;82;21217;-57
2020/12/10 07:25:23;;;;;;;32.43;12.80;;;;;;;-3.27;74.19;100040.06;1737709;82;21222;-61
2020/12/10 07:27:53;;;;;;;28.07;11.50;;;;;;;-3.26;73.91;100040.50;1736086;82;21212;-58
2020/12/10 07:30:24;;;;;;;21.60;11.17;;;;;;;-3.26;74.00;100034.35;1740778;81;21165;-57
2020/12/10 07:32:54;;;;;;;26.57;12.87;;;;;;;-3.27;73.90;100036.11;1740389;81;21205;-58
2020/12/10 07:35:29;;;;;;;23.30;11.77;;;;;;;-3.29;73.84;100039.23;1740126;82;21183;-58
2020/12/10 07:38:11;;;;;;;23.97;12.13;;;;;;;-3.29;73.79;100037.04;1740752;82;21185;-59
2020/12/10 11:45:27;;;;;;;41.70;17.50;;;;;;;-2.38;78.61;99896.05;1662954;85;21395;-62
2020/12/10 11:47:56;;;;;;;36.07;15.90;;;;;;;-2.41;78.99;99882.92;1658799;85;21328;-58
2020/12/10 11:50:27;;;;;;;33.80;16.20;;;;;;;-2.39;79.18;99883.30;1647499;86;21187;-62
2020/12/10 11:52:55;;;;;;;41.67;16.03;;;;;;;-2.38;79.28;99884.17;1660064;86;21352;-64
2020/12/10 11:55:24;;;;;;;38.97;17.77;;;;;;;-2.38;79.43;99882.86;1660294;85;21735;-60
2020/12/10 11:57:52;;;;;;;34.90;16.53;;;;;;;-2.38;79.64;99886.81;1653431;86;21386;-59
2020/12/10 12:00:20;;;;;;;37.57;16.03;;;;;;;-2.35;79.73;99877.03;1649912;86;21139;-61
2020/12/10 12:02:51;;;;;;;46.13;18.70;;;;;;;-2.31;79.95;99885.72;1650324;85;21210;-63
2020/12/10 12:05:26;;;;;;;35.60;17.20;;;;;;;-2.27;79.99;99893.13;1655873;85;21171;-61
2020/12/10 12:07:54;;;;;;;34.70;15.33;;;;;;;-2.23;79.94;99890.81;1657588;85;21194;-62
2020/12/10 12:10:22;;;;;;;34.30;15.47;;;;;;;-2.20;80.02;99883.66;1655975;85;21611;-63
2020/12/10 12:12:50;;;;;;;31.03;15.40;;;;;;;-2.21;79.95;99887.23;1635851;86;21186;-63
2020/12/10 12:15:19;;;;;;;35.73;15.73;;;;;;;-2.24;80.02;99889.94;1645173;85;21194;-62
2020/12/10 12:17:47;;;;;;;36.73;16.40;;;;;;;-2.27;80.17;99891.33;1651406;86;21191;-62
2020/12/10 12:20:15;;;;;;;37.17;16.40;;;;;;;-2.31;80.36;99898.47;1646050;86;21641;-60
2020/12/10 12:22:46;;;;;;;35.07;16.67;;;;;;;-2.36;80.54;99899.04;1647556;86;21360;-61
2020/12/10 12:25:15;;;;;;;40.63;16.60;;;;;;;-2.39;80.78;99906.17;1654797;86;21671;-62
2020/12/10 12:27:47;;;;;;;30.30;15.00;;;;;;;-2.38;80.99;99896.89;1645156;85;21203;-62
2020/12/10 12:30:19;;;;;;;34.03;16.53;;;;;;;-2.33;81.11;99900.73;1655618;86;21193;-60
2020/12/10 12:32:51;;;;;;;42.70;19.20;;;;;;;-2.27;81.19;99893.52;1623856;86;21154;-63
2020/12/10 12:35:19;;;;;;;38.37;17.83;;;;;;;-2.23;81.24;99895.65;1630311;85;21166;-63
2020/12/10 12:37:48;;;;;;;37.83;18.03;;;;;;;-2.21;81.29;99896.92;1657891;86;21340;-71
2020/12/10 12:40:21;;;;;;;33.40;15.67;;;;;;;-2.15;81.40;99899.39;1647468;85;21179;-62
2020/12/10 12:42:52;;;;;;;38.30;18.43;;;;;;;-2.13;81.39;99900.21;1640802;86;21147;-61
2020/12/10 12:45:24;;;;;;;40.00;18.20;;;;;;;-2.17;81.49;99902.08;1660491;85;21194;-61
2020/12/10 12:47:54;;;;;;;39.57;17.90;;;;;;;-2.22;81.72;99890.77;1641921;86;21346;-61
2020/12/10 12:50:23;;;;;;;40.13;18.10;;;;;;;-2.21;81.89;99896.47;1654770;84;21206;-65
2020/12/10 12:52:53;;;;;;;34.03;15.57;;;;;;;-2.20;81.98;99889.39;1670973;84;21352;-67
2020/12/10 12:55:20;;;;;;;35.13;17.43;;;;;;;-2.22;82.18;99888.56;1653474;86;21320;-62
2020/12/10 12:57:50;;;;;;;36.23;17.33;;;;;;;-2.28;82.49;99892.25;1661475;86;21202;-60
2020/12/10 13:00:19;;;;;;;33.43;16.70;;;;;;;-2.32;82.71;99890.61;1683165;84;21630;-61
2020/12/10 13:02:50;;;;;;;44.43;19.23;;;;;;;-2.34;82.83;99886.66;1669387;84;21317;-58
2020/12/10 13:05:18;;;;;;;41.20;17.47;;;;;;;-2.35;83.09;99892.87;1625937;85;21222;-65
2020/12/10 13:07:49;;;;;;;36.03;18.13;;;;;;;-2.34;83.33;99892.42;1670231;84;21165;-65
2020/12/10 13:10:26;;;;;;;38.20;17.73;;;;;;;-2.35;83.48;99890.67;1661550;84;21328;-62
2020/12/10 13:13:03;;;;;;;46.33;19.50;;;;;;;-2.30;83.73;99877.78;1761658;79;23054;-70
2020/12/10 13:15:32;;;;;;;37.93;18.60;;;;;;;-2.31;83.83;99879.13;1727957;82;21301;-67
2020/12/10 13:18:08;;;;;;;34.20;16.73;;;;;;;-2.29;84.01;99883.46;1735565;80;21214;-60
2020/12/10 13:20:39;;;;;;;39.50;18.57;;;;;;;-2.27;84.23;99876.36;1731426;82;21602;-61
2020/12/10 13:23:10;;;;;;;42.13;18.53;;;;;;;-2.27;84.49;99879.45;1743731;80;21313;-61
2020/12/10 13:25:38;;;;;;;38.30;19.00;;;;;;;-2.31;84.62;99872.08;1737049;80;21179;-60
2020/12/10 13:28:06;;;;;;;43.30;18.03;;;;;;;-2.27;84.92;99871.53;1732198;82;21297;-61
2020/12/10 13:30:34;;;;;;;58.00;18.97;;;;;;;-2.27;85.06;99868.44;1739961;82;21539;-59
2020/12/10 13:33:02;;;;;;;44.07;17.50;;;;;;;-2.27;85.28;99869.38;1742145;82;21355;-66
2020/12/10 13:35:31;;;;;;;43.27;19.30;;;;;;;-2.26;85.56;99868.00;1747994;82;21344;-64
2020/12/10 13:37:59;;;;;;;59.50;20.00;;;;;;;-2.27;85.76;99866.25;1747072;82;21163;-65
2020/12/10 13:40:32;;;;;;;44.60;18.37;;;;;;;-2.25;85.92;99867.55;1739425;82;21146;-66
2020/12/10 13:43:03;;;;;;;118.97;22.87;;;;;;;-2.22;86.24;99873.60;1722722;82;21143;-60
2020/12/10 13:45:34;;;;;;;;;;;;;;;-2.18;86.38;99871.77;1742524;80;21536;-62
2020/12/10 13:48:04;;;;;;;36.03;15.47;;;;;;;-2.16;86.59;99873.91;1737806;80;20798;-61
2020/12/10 13:50:33;;;;;;;41.30;19.07;;;;;;;-2.18;86.70;99875.25;1734545;82;21163;-57
2020/12/10 13:53:02;;;;;;;36.93;17.30;;;;;;;-2.19;86.95;99877.94;1726291;82;21159;-57
2020/12/10 13:55:35;;;;;;;42.10;18.03;;;;;;;-2.19;87.12;99876.63;1704238;83;21381;-58
2020/12/10 13:58:07;;;;;;;40.23;19.17;;;;;;;-2.19;87.33;99876.17;1684166;83;21213;-57
2020/12/10 14:00:35;;;;;;;39.57;17.67;;;;;;;-2.20;87.50;99873.11;1692820;82;21556;-64
2020/12/10 14:03:03;;;;;;;42.93;18.93;;;;;;;-2.14;87.74;99872.94;1695454;82;21134;-64
2020/12/10 14:05:38;;;;;;;41.50;18.20;;;;;;;-2.10;87.73;99875.06;1702459;82;21690;-56
2020/12/10 14:08:10;;;;;;;42.63;19.10;;;;;;;-2.11;87.83;99871.99;1690962;82;21138;-59
2020/12/10 14:10:42;;;;;;;34.77;16.73;;;;;;;-2.12;87.89;99871.59;1693249;82;21213;-58
2020/12/10 14:13:10;;;;;;;34.63;17.03;;;;;;;-2.12;87.98;99867.19;1683171;84;21391;-58
2020/12/10 14:15:40;;;;;;;36.23;17.33;;;;;;;-2.12;88.05;99861.91;1686547;84;21238;-58
2020/12/10 14:18:14;;;;;;;38.13;18.17;;;;;;;-2.07;88.11;99863.95;1685327;84;21340;-60
2020/12/10 14:20:42;;;;;;;25.45;12.50;;;;;;;-2.08;88.15;99858.27;1695780;82;21353;-60
2020/12/10 14:23:10;;;;;;;41.73;18.17;;;;;;;-2.09;88.20;99853.88;1675735;84;21693;-59
2020/12/10 14:25:39;;;;;;;41.50;17.93;;;;;;;-2.08;88.35;99860.91;1691250;82;21599;-59
2020/12/10 14:28:10;;;;;;;37.50;16.10;;;;;;;-2.04;88.54;99858.59;1692852;82;21220;-59
2020/12/10 14:30:42;;;;;;;34.20;16.77;;;;;;;-1.99;88.67;99863.30;1688048;84;21143;-59
2020/12/10 14:33:10;;;;;;;38.97;17.83;;;;;;;-1.94;88.68;99866.66;1689822;84;21167;-57
2020/12/10 14:36:03;;;;;;;34.93;17.07;;;;;;;-1.92;88.57;99863.52;1692620;84;21305;-59
2020/12/10 14:38:36;;;;;;;34.60;16.43;;;;;;;-1.87;88.63;99866.91;1684994;84;21610;-59
2020/12/10 14:41:14;;;;;;;35.60;16.00;;;;;;;-1.89;88.40;99868.73;1691387;82;21138;-58
2020/12/10 14:43:44;;;;;;;38.13;16.33;;;;;;;-1.93;88.36;99858.29;1693596;82;21224;-60
2020/12/10 14:46:13;;;;;;;40.03;17.97;;;;;;;-1.92;88.59;99856.91;1690134;82;21719;-59
2020/12/10 14:48:44;;;;;;;33.77;16.53;;;;;;;-1.88;88.73;99853.27;1683420;82;21143;-60
2020/12/10 14:51:17;;;;;;;36.90;15.40;;;;;;;-1.84;88.80;99856.27;1655981;84;21328;-60
2020/12/10 14:53:44;;;;;;;34.67;17.33;;;;;;;-1.83;88.41;99850.50;1694840;84;21226;-60
2020/12/10 14:56:12;;;;;;;29.23;14.47;;;;;;;-1.86;88.45;99844.00;1688941;84;21171;-60
2020/12/10 14:58:44;;;;;;;30.07;14.10;;;;;;;-1.85;88.56;99836.47;1730473;82;21139;-59
2020/12/10 15:01:28;;;;;;;28.30;13.90;;;;;;;-1.77;88.47;99837.98;1761984;79;22997;-59
2020/12/10 15:03:57;;;;;;;35.03;16.50;;;;;;;-1.84;88.37;99836.45;1744926;82;21309;-59
2020/12/10 15:06:30;;;;;;;32.80;15.23;;;;;;;-1.88;88.36;99820.25;1733839;82;21281;-59
2020/12/10 15:09:01;;;;;;;32.40;15.53;;;;;;;-1.90;88.32;99826.03;1736792;80;21115;-60
2020/12/10 15:11:36;;;;;;;27.70;13.80;;;;;;;-1.93;88.38;99816.91;1734163;82;21296;-60
2020/12/10 15:14:04;;;;;;;33.00;14.70;;;;;;;-1.96;88.37;99809.05;1731878;82;21159;-60
2020/12/10 15:16:32;;;;;;;34.00;15.23;;;;;;;-1.98;88.35;99812.64;1730929;80;21307;-61
2020/12/10 15:19:01;;;;;;;24.07;12.37;;;;;;;-2.00;88.47;99815.34;1734764;80;21527;-60
2020/12/10 15:21:29;;;;;;;29.43;14.57;;;;;;;-2.03;88.45;99815.89;1728579;80;21566;-60
2020/12/10 15:23:58;;;;;;;31.17;14.27;;;;;;;-2.04;88.63;99813.70;1736682;80;21248;-57
2020/12/10 15:26:26;;;;;;;35.80;16.60;;;;;;;-2.01;88.85;99810.95;1736940;82;21198;-58
2020/12/10 15:28:58;;;;;;;37.50;15.30;;;;;;;-1.99;88.85;99806.52;1707565;82;21182;-58
2020/12/10 15:31:30;;;;;;;29.47;13.70;;;;;;;-1.94;88.88;99809.87;1697969;83;21606;-62
2020/12/10 15:34:00;;;;;;;27.52;14.23;;;;;;;-1.96;88.72;99795.84;1705205;83;21154;-62
2020/12/10 15:36:40;;;;;;;29.47;12.90;;;;;;;-2.00;88.71;99807.41;1693380;83;22246;-60